sensor_id;sensor_type;location;lat;lon;timestamp;temperature;humidity
77100;SHT31;66602;48.922;2.414;2023-02-27T00:00:34;-1.00;65.41
77100;SHT31;66602;48.922;2.414;2023-02-27T00:03:00;-0.93;65.12
77100;SHT31;66602;48.922;2.414;2023-02-27T00:05:26;-0.91;65.20
77100;SHT31;66602;48.922;2.414;2023-02-27T00:07:51;-0.95;65.38
77100;SHT31;66602;48.922;2.414;2023-02-27T00:10:17;-1.09;66.30
77100;SHT31;66602;48.922;2.414;2023-02-27T00:12:43;-1.16;66.93
77100;SHT31;66602;48.922;2.414;2023-02-27T00:15:10;-1.09;66.35
77100;SHT31;66602;48.922;2.414;2023-02-27T00:17:36;-1.12;66.57
77100;SHT31;66602;48.922;2.414;2023-02-27T00:20:04;-1.16;66.38
77100;SHT31;66602;48.922;2.414;2023-02-27T00:22:29;-1.13;66.78
77100;SHT31;66602;48.922;2.414;2023-02-27T00:24:55;-1.03;66.58
77100;SHT31;66602;48.922;2.414;2023-02-27T00:27:20;-0.99;66.68
77100;SHT31;66602;48.922;2.414;2023-02-27T00:29:46;-1.12;66.76
77100;SHT31;66602;48.922;2.414;2023-02-27T00:32:12;-1.17;67.66
77100;SHT31;66602;48.922;2.414;2023-02-27T00:34:37;-1.19;67.03
77100;SHT31;66602;48.922;2.414;2023-02-27T00:37:03;-1.19;67.60
77100;SHT31;66602;48.922;2.414;2023-02-27T00:39:29;-0.99;67.13
77100;SHT31;66602;48.922;2.414;2023-02-27T00:41:54;-1.06;67.18
77100;SHT31;66602;48.922;2.414;2023-02-27T00:44:20;-1.15;67.41
77100;SHT31;66602;48.922;2.414;2023-02-27T00:46:45;-1.17;67.80
77100;SHT31;66602;48.922;2.414;2023-02-27T00:49:12;-1.16;67.54
77100;SHT31;66602;48.922;2.414;2023-02-27T00:51:38;-1.15;67.44
77100;SHT31;66602;48.922;2.414;2023-02-27T00:54:04;-1.25;68.03
77100;SHT31;66602;48.922;2.414;2023-02-27T00:56:29;-1.39;68.67
77100;SHT31;66602;48.922;2.414;2023-02-27T00:58:55;-1.40;68.78
77100;SHT31;66602;48.922;2.414;2023-02-27T01:01:21;-1.30;68.45
77100;SHT31;66602;48.922;2.414;2023-02-27T01:03:46;-1.37;68.97
77100;SHT31;66602;48.922;2.414;2023-02-27T01:06:12;-1.29;68.60
77100;SHT31;66602;48.922;2.414;2023-02-27T01:08:38;-1.19;68.24
77100;SHT31;66602;48.922;2.414;2023-02-27T01:11:03;-1.12;68.29
77100;SHT31;66602;48.922;2.414;2023-02-27T01:13:29;-1.10;68.05
77100;SHT31;66602;48.922;2.414;2023-02-27T01:15:54;-1.21;68.61
77100;SHT31;66602;48.922;2.414;2023-02-27T01:18:20;-1.34;69.10
77100;SHT31;66602;48.922;2.414;2023-02-27T01:20:50;-1.47;69.32
77100;SHT31;66602;48.922;2.414;2023-02-27T01:23:16;-1.47;69.66
77100;SHT31;66602;48.922;2.414;2023-02-27T01:25:41;-1.43;69.85
77100;SHT31;66602;48.922;2.414;2023-02-27T01:28:07;-1.40;69.89
77100;SHT31;66602;48.922;2.414;2023-02-27T01:30:33;-1.34;69.27
77100;SHT31;66602;48.922;2.414;2023-02-27T01:33:00;-1.32;69.50
77100;SHT31;66602;48.922;2.414;2023-02-27T01:35:32;-1.27;69.54
77100;SHT31;66602;48.922;2.414;2023-02-27T01:37:57;-1.33;69.60
77100;SHT31;66602;48.922;2.414;2023-02-27T01:40:24;-1.33;69.77
77100;SHT31;66602;48.922;2.414;2023-02-27T01:42:50;-1.39;70.01
77100;SHT31;66602;48.922;2.414;2023-02-27T01:45:26;-1.23;69.57
77100;SHT31;66602;48.922;2.414;2023-02-27T01:50:38;-1.26;69.79
77100;SHT31;66602;48.922;2.414;2023-02-27T01:53:06;-1.29;69.90
77100;SHT31;66602;48.922;2.414;2023-02-27T01:55:34;-1.25;70.14
77100;SHT31;66602;48.922;2.414;2023-02-27T01:58:05;-1.34;70.47
77100;SHT31;66602;48.922;2.414;2023-02-27T02:00:32;-1.42;70.30
77100;SHT31;66602;48.922;2.414;2023-02-27T02:03:06;-1.37;70.34
77100;SHT31;66602;48.922;2.414;2023-02-27T02:05:32;-1.26;70.03
77100;SHT31;66602;48.922;2.414;2023-02-27T02:07:58;-1.33;69.96
77100;SHT31;66602;48.922;2.414;2023-02-27T02:10:25;-1.27;70.27
77100;SHT31;66602;48.922;2.414;2023-02-27T02:12:51;-1.34;70.24
77100;SHT31;66602;48.922;2.414;2023-02-27T02:15:20;-1.43;70.46
77100;SHT31;66602;48.922;2.414;2023-02-27T02:18:02;-1.42;70.79
77100;SHT31;66602;48.922;2.414;2023-02-27T02:40:45;-1.42;70.10
77100;SHT31;66602;48.922;2.414;2023-02-27T02:48:51;-1.63;71.07
77100;SHT31;66602;48.922;2.414;2023-02-27T02:54:16;-1.60;71.22
77100;SHT31;66602;48.922;2.414;2023-02-27T02:57:09;-1.54;70.76
77100;SHT31;66602;48.922;2.414;2023-02-27T02:59:52;-1.44;70.41
77100;SHT31;66602;48.922;2.414;2023-02-27T03:02:25;-1.54;70.42
77100;SHT31;66602;48.922;2.414;2023-02-27T03:05:16;-1.50;70.71
77100;SHT31;66602;48.922;2.414;2023-02-27T03:10:21;-1.48;69.85
77100;SHT31;66602;48.922;2.414;2023-02-27T03:12:56;-1.54;70.13
77100;SHT31;66602;48.922;2.414;2023-02-27T03:15:32;-1.70;70.71
77100;SHT31;66602;48.922;2.414;2023-02-27T03:18:04;-1.74;71.11
77100;SHT31;66602;48.922;2.414;2023-02-27T03:20:42;-1.67;70.67
77100;SHT31;66602;48.922;2.414;2023-02-27T03:23:17;-1.68;70.43
77100;SHT31;66602;48.922;2.414;2023-02-27T03:25:45;-1.72;70.74
77100;SHT31;66602;48.922;2.414;2023-02-27T03:28:14;-1.67;70.35
77100;SHT31;66602;48.922;2.414;2023-02-27T03:30:48;-1.61;70.24
77100;SHT31;66602;48.922;2.414;2023-02-27T03:33:20;-1.64;70.11
77100;SHT31;66602;48.922;2.414;2023-02-27T03:38:59;-1.60;70.17
77100;SHT31;66602;48.922;2.414;2023-02-27T03:41:41;-1.51;69.85
77100;SHT31;66602;48.922;2.414;2023-02-27T03:44:26;-1.58;69.64
77100;SHT31;66602;48.922;2.414;2023-02-27T03:46:52;-1.60;70.05
77100;SHT31;66602;48.922;2.414;2023-02-27T03:49:18;-1.61;69.81
77100;SHT31;66602;48.922;2.414;2023-02-27T03:51:44;-1.63;70.50
77100;SHT31;66602;48.922;2.414;2023-02-27T03:54:14;-1.57;70.08
77100;SHT31;66602;48.922;2.414;2023-02-27T03:59:08;-1.46;69.99
77100;SHT31;66602;48.922;2.414;2023-02-27T04:01:33;-1.53;69.88
77100;SHT31;66602;48.922;2.414;2023-02-27T04:04:11;-1.57;70.05
77100;SHT31;66602;48.922;2.414;2023-02-27T04:06:39;-1.51;69.93
77100;SHT31;66602;48.922;2.414;2023-02-27T04:09:49;-1.47;69.72
77100;SHT31;66602;48.922;2.414;2023-02-27T04:20:41;-1.60;70.44
77100;SHT31;66602;48.922;2.414;2023-02-27T04:26:28;-1.61;70.55
77100;SHT31;66602;48.922;2.414;2023-02-27T04:31:57;-1.65;70.74
77100;SHT31;66602;48.922;2.414;2023-02-27T04:37:10;-1.65;70.65
77100;SHT31;66602;48.922;2.414;2023-02-27T04:39:43;-1.71;71.11
77100;SHT31;66602;48.922;2.414;2023-02-27T04:42:11;-1.65;70.68
77100;SHT31;66602;48.922;2.414;2023-02-27T04:44:39;-1.55;70.45
77100;SHT31;66602;48.922;2.414;2023-02-27T04:47:07;-1.44;69.70
77100;SHT31;66602;48.922;2.414;2023-02-27T04:49:38;-1.47;70.24
77100;SHT31;66602;48.922;2.414;2023-02-27T04:52:23;-1.53;70.34
77100;SHT31;66602;48.922;2.414;2023-02-27T04:55:12;-1.48;70.31
77100;SHT31;66602;48.922;2.414;2023-02-27T04:57:54;-1.39;69.95
77100;SHT31;66602;48.922;2.414;2023-02-27T05:00:24;-1.37;70.00
77100;SHT31;66602;48.922;2.414;2023-02-27T05:02:55;-1.53;70.38
77100;SHT31;66602;48.922;2.414;2023-02-27T05:05:28;-1.61;71.14
77100;SHT31;66602;48.922;2.414;2023-02-27T05:08:07;-1.63;71.58
77100;SHT31;66602;48.922;2.414;2023-02-27T05:10:46;-1.58;71.53
77100;SHT31;66602;48.922;2.414;2023-02-27T05:13:24;-1.60;71.79
77100;SHT31;66602;48.922;2.414;2023-02-27T05:15:55;-1.55;72.06
77100;SHT31;66602;48.922;2.414;2023-02-27T05:18:22;-1.63;72.12
77100;SHT31;66602;48.922;2.414;2023-02-27T05:26:20;-1.74;73.66
77100;SHT31;66602;48.922;2.414;2023-02-27T05:31:36;-1.84;74.05
77100;SHT31;66602;48.922;2.414;2023-02-27T05:34:11;-1.89;74.45
77100;SHT31;66602;48.922;2.414;2023-02-27T05:37:02;-1.88;74.60
77100;SHT31;66602;48.922;2.414;2023-02-27T05:39:30;-1.85;74.24
77100;SHT31;66602;48.922;2.414;2023-02-27T05:42:00;-1.88;74.82
77100;SHT31;66602;48.922;2.414;2023-02-27T05:44:33;-1.74;74.30
77100;SHT31;66602;48.922;2.414;2023-02-27T05:47:03;-1.75;74.10
77100;SHT31;66602;48.922;2.414;2023-02-27T05:49:39;-1.72;74.58
77100;SHT31;66602;48.922;2.414;2023-02-27T05:52:09;-1.74;74.26
77100;SHT31;66602;48.922;2.414;2023-02-27T05:57:11;-1.79;75.23
77100;SHT31;66602;48.922;2.414;2023-02-27T05:59:41;-1.77;75.08
77100;SHT31;66602;48.922;2.414;2023-02-27T06:02:09;-1.81;75.16
77100;SHT31;66602;48.922;2.414;2023-02-27T06:04:35;-1.81;75.08
77100;SHT31;66602;48.922;2.414;2023-02-27T06:07:01;-1.81;74.92
77100;SHT31;66602;48.922;2.414;2023-02-27T06:09:30;-1.82;75.21
77100;SHT31;66602;48.922;2.414;2023-02-27T06:11:56;-1.77;75.21
77100;SHT31;66602;48.922;2.414;2023-02-27T06:14:21;-1.77;75.18
77100;SHT31;66602;48.922;2.414;2023-02-27T06:16:47;-1.78;75.28
77100;SHT31;66602;48.922;2.414;2023-02-27T06:19:12;-1.78;75.16
77100;SHT31;66602;48.922;2.414;2023-02-27T06:21:38;-1.78;75.43
77100;SHT31;66602;48.922;2.414;2023-02-27T06:24:03;-1.86;75.42
77100;SHT31;66602;48.922;2.414;2023-02-27T06:26:29;-1.85;75.48
77100;SHT31;66602;48.922;2.414;2023-02-27T06:28:54;-1.84;75.48
77100;SHT31;66602;48.922;2.414;2023-02-27T06:31:20;-1.82;75.51
77100;SHT31;66602;48.922;2.414;2023-02-27T06:33:46;-1.91;75.90
77100;SHT31;66602;48.922;2.414;2023-02-27T06:36:11;-1.89;75.92
77100;SHT31;66602;48.922;2.414;2023-02-27T06:38:37;-1.88;75.83
77100;SHT31;66602;48.922;2.414;2023-02-27T06:41:02;-1.88;75.66
77100;SHT31;66602;48.922;2.414;2023-02-27T06:43:31;-1.85;75.41
77100;SHT31;66602;48.922;2.414;2023-02-27T06:45:59;-1.94;75.86
77100;SHT31;66602;48.922;2.414;2023-02-27T06:48:25;-1.99;76.05
77100;SHT31;66602;48.922;2.414;2023-02-27T06:50:52;-2.02;76.39
77100;SHT31;66602;48.922;2.414;2023-02-27T06:53:18;-1.96;76.19
77100;SHT31;66602;48.922;2.414;2023-02-27T06:55:43;-1.95;76.43
77100;SHT31;66602;48.922;2.414;2023-02-27T06:58:09;-1.95;76.35
77100;SHT31;66602;48.922;2.414;2023-02-27T07:00:35;-1.81;75.66
77100;SHT31;66602;48.922;2.414;2023-02-27T07:03:00;-1.88;76.07
77100;SHT31;66602;48.922;2.414;2023-02-27T07:05:29;-1.82;76.00
77100;SHT31;66602;48.922;2.414;2023-02-27T07:07:54;-1.74;75.07
77100;SHT31;66602;48.922;2.414;2023-02-27T07:10:20;-1.60;74.57
77100;SHT31;66602;48.922;2.414;2023-02-27T07:12:45;-1.57;74.40
77100;SHT31;66602;48.922;2.414;2023-02-27T07:15:11;-1.51;74.26
77100;SHT31;66602;48.922;2.414;2023-02-27T07:17:36;-1.47;74.36
77100;SHT31;66602;48.922;2.414;2023-02-27T07:20:04;-1.39;74.00
77100;SHT31;66602;48.922;2.414;2023-02-27T07:22:30;-1.32;73.61
77100;SHT31;66602;48.922;2.414;2023-02-27T07:24:56;-1.32;73.82
77100;SHT31;66602;48.922;2.414;2023-02-27T07:27:21;-0.71;71.86
77100;SHT31;66602;48.922;2.414;2023-02-27T07:29:47;0.48;67.96
77100;SHT31;66602;48.922;2.414;2023-02-27T07:32:12;2.06;61.90
77100;SHT31;66602;48.922;2.414;2023-02-27T07:34:38;2.74;58.61
77100;SHT31;66602;48.922;2.414;2023-02-27T07:37:03;4.02;54.19
77100;SHT31;66602;48.922;2.414;2023-02-27T07:39:29;4.79;51.51
77100;SHT31;66602;48.922;2.414;2023-02-27T07:41:54;5.94;48.02
77100;SHT31;66602;48.922;2.414;2023-02-27T07:44:20;6.63;45.43
77100;SHT31;66602;48.922;2.414;2023-02-27T07:46:45;7.09;44.28
77100;SHT31;66602;48.922;2.414;2023-02-27T07:49:11;7.28;43.48
77100;SHT31;66602;48.922;2.414;2023-02-27T07:51:37;7.75;42.04
77100;SHT31;66602;48.922;2.414;2023-02-27T07:54:03;8.03;41.73
77100;SHT31;66602;48.922;2.414;2023-02-27T07:56:28;7.85;41.30
77100;SHT31;66602;48.922;2.414;2023-02-27T07:58:54;8.21;40.39
77100;SHT31;66602;48.922;2.414;2023-02-27T08:01:20;8.12;40.29
77100;SHT31;66602;48.922;2.414;2023-02-27T08:03:46;8.30;39.63
77100;SHT31;66602;48.922;2.414;2023-02-27T08:06:12;9.05;38.60
77100;SHT31;66602;48.922;2.414;2023-02-27T08:08:37;9.35;37.45
77100;SHT31;66602;48.922;2.414;2023-02-27T08:11:03;8.81;37.92
77100;SHT31;66602;48.922;2.414;2023-02-27T08:13:29;9.59;36.73
77100;SHT31;66602;48.922;2.414;2023-02-27T08:15:55;9.73;36.21
77100;SHT31;66602;48.922;2.414;2023-02-27T08:18:21;9.98;36.14
77100;SHT31;66602;48.922;2.414;2023-02-27T08:20:46;10.63;34.88
77100;SHT31;66602;48.922;2.414;2023-02-27T08:23:12;8.77;37.54
77100;SHT31;66602;48.922;2.414;2023-02-27T08:25:38;9.82;36.32
77100;SHT31;66602;48.922;2.414;2023-02-27T08:28:03;9.72;35.97
77100;SHT31;66602;48.922;2.414;2023-02-27T08:30:29;10.20;35.03
77100;SHT31;66602;48.922;2.414;2023-02-27T08:32:55;10.38;34.71
77100;SHT31;66602;48.922;2.414;2023-02-27T08:35:21;8.94;36.64
77100;SHT31;66602;48.922;2.414;2023-02-27T08:37:47;8.07;39.35
77100;SHT31;66602;48.922;2.414;2023-02-27T08:40:15;8.39;38.73
77100;SHT31;66602;48.922;2.414;2023-02-27T08:42:40;6.49;42.27
77100;SHT31;66602;48.922;2.414;2023-02-27T08:45:07;6.34;43.42
77100;SHT31;66602;48.922;2.414;2023-02-27T08:47:33;6.88;42.03
77100;SHT31;66602;48.922;2.414;2023-02-27T08:49:58;7.88;38.93
77100;SHT31;66602;48.922;2.414;2023-02-27T08:52:24;8.02;38.19
77100;SHT31;66602;48.922;2.414;2023-02-27T08:54:50;7.48;39.73
77100;SHT31;66602;48.922;2.414;2023-02-27T08:57:15;7.16;40.48
77100;SHT31;66602;48.922;2.414;2023-02-27T08:59:41;7.19;39.75
77100;SHT31;66602;48.922;2.414;2023-02-27T09:02:06;7.79;38.00
77100;SHT31;66602;48.922;2.414;2023-02-27T09:04:32;8.98;36.34
77100;SHT31;66602;48.922;2.414;2023-02-27T09:06:57;9.52;34.89
77100;SHT31;66602;48.922;2.414;2023-02-27T09:09:23;8.95;36.04
77100;SHT31;66602;48.922;2.414;2023-02-27T09:11:49;7.85;38.08
77100;SHT31;66602;48.922;2.414;2023-02-27T09:14:15;8.09;37.64
77100;SHT31;66602;48.922;2.414;2023-02-27T09:16:41;8.67;36.30
77100;SHT31;66602;48.922;2.414;2023-02-27T09:19:06;9.22;34.89
77100;SHT31;66602;48.922;2.414;2023-02-27T09:21:32;9.66;33.81
77100;SHT31;66602;48.922;2.414;2023-02-27T09:23:57;10.54;33.05
77100;SHT31;66602;48.922;2.414;2023-02-27T09:26:24;9.95;32.96
77100;SHT31;66602;48.922;2.414;2023-02-27T09:28:50;9.47;34.05
77100;SHT31;66602;48.922;2.414;2023-02-27T09:31:16;10.24;33.06
77100;SHT31;66602;48.922;2.414;2023-02-27T09:33:42;9.60;33.86
77100;SHT31;66602;48.922;2.414;2023-02-27T09:36:09;9.21;34.17
77100;SHT31;66602;48.922;2.414;2023-02-27T09:38:35;9.62;33.94
77100;SHT31;66602;48.922;2.414;2023-02-27T09:41:02;9.60;34.30
77100;SHT31;66602;48.922;2.414;2023-02-27T09:43:43;9.72;34.19
77100;SHT31;66602;48.922;2.414;2023-02-27T09:46:18;9.67;34.08
77100;SHT31;66602;48.922;2.414;2023-02-27T09:48:49;10.63;32.64
77100;SHT31;66602;48.922;2.414;2023-02-27T09:51:16;11.10;31.59
77100;SHT31;66602;48.922;2.414;2023-02-27T09:53:45;12.05;29.82
77100;SHT31;66602;48.922;2.414;2023-02-27T09:56:31;12.81;28.21
77100;SHT31;66602;48.922;2.414;2023-02-27T09:59:14;11.84;29.80
77100;SHT31;66602;48.922;2.414;2023-02-27T10:15:30;14.86;25.16
77100;SHT31;66602;48.922;2.414;2023-02-27T10:18:12;15.48;24.81
77100;SHT31;66602;48.922;2.414;2023-02-27T10:20:52;15.33;25.27
77100;SHT31;66602;48.922;2.414;2023-02-27T10:23:26;14.76;24.32
77100;SHT31;66602;48.922;2.414;2023-02-27T10:25:54;14.73;25.76
77100;SHT31;66602;48.922;2.414;2023-02-27T10:28:21;15.60;23.99
77100;SHT31;66602;48.922;2.414;2023-02-27T10:30:52;15.31;24.68
77100;SHT31;66602;48.922;2.414;2023-02-27T10:35:53;13.51;26.68
77100;SHT31;66602;48.922;2.414;2023-02-27T10:38:46;14.57;24.80
77100;SHT31;66602;48.922;2.414;2023-02-27T10:41:14;15.89;24.18
77100;SHT31;66602;48.922;2.414;2023-02-27T10:43:41;15.82;23.22
77100;SHT31;66602;48.922;2.414;2023-02-27T10:46:16;16.28;24.41
77100;SHT31;66602;48.922;2.414;2023-02-27T10:48:43;16.70;22.71
77100;SHT31;66602;48.922;2.414;2023-02-27T10:51:22;16.08;22.44
77100;SHT31;66602;48.922;2.414;2023-02-27T10:53:48;16.28;22.47
77100;SHT31;66602;48.922;2.414;2023-02-27T10:56:26;16.69;20.83
77100;SHT31;66602;48.922;2.414;2023-02-27T10:59:04;15.89;22.54
77100;SHT31;66602;48.922;2.414;2023-02-27T11:01:54;15.53;21.94
77100;SHT31;66602;48.922;2.414;2023-02-27T11:04:40;15.53;21.94
77100;SHT31;66602;48.922;2.414;2023-02-27T11:07:11;15.64;21.30
77100;SHT31;66602;48.922;2.414;2023-02-27T11:09:40;16.45;20.35
77100;SHT31;66602;48.922;2.414;2023-02-27T11:12:23;15.89;21.31
77100;SHT31;66602;48.922;2.414;2023-02-27T11:14:55;16.08;21.49
77100;SHT31;66602;48.922;2.414;2023-02-27T11:17:30;16.60;20.54
77100;SHT31;66602;48.922;2.414;2023-02-27T11:19:58;16.95;20.38
77100;SHT31;66602;48.922;2.414;2023-02-27T11:22:29;16.23;21.62
77100;SHT31;66602;48.922;2.414;2023-02-27T11:25:19;17.62;19.65
77100;SHT31;66602;48.922;2.414;2023-02-27T11:27:45;17.29;20.81
77100;SHT31;66602;48.922;2.414;2023-02-27T11:32:52;16.85;20.76
77100;SHT31;66602;48.922;2.414;2023-02-27T11:35:23;17.24;20.36
77100;SHT31;66602;48.922;2.414;2023-02-27T11:37:51;17.28;19.57
77100;SHT31;66602;48.922;2.414;2023-02-27T11:40:19;17.42;19.60
77100;SHT31;66602;48.922;2.414;2023-02-27T11:42:54;17.27;20.57
77100;SHT31;66602;48.922;2.414;2023-02-27T11:45:31;17.68;19.84
77100;SHT31;66602;48.922;2.414;2023-02-27T11:48:10;16.84;20.29
77100;SHT31;66602;48.922;2.414;2023-02-27T11:51:02;16.78;19.93
77100;SHT31;66602;48.922;2.414;2023-02-27T11:53:54;17.98;19.84
77100;SHT31;66602;48.922;2.414;2023-02-27T11:56:36;18.69;18.87
77100;SHT31;66602;48.922;2.414;2023-02-27T12:07:29;17.66;19.24
77100;SHT31;66602;48.922;2.414;2023-02-27T12:10:21;18.33;18.82
77100;SHT31;66602;48.922;2.414;2023-02-27T12:13:01;19.23;18.13
77100;SHT31;66602;48.922;2.414;2023-02-27T12:18:26;17.87;19.22
77100;SHT31;66602;48.922;2.414;2023-02-27T12:21:17;17.83;19.95
77100;SHT31;66602;48.922;2.414;2023-02-27T12:23:52;17.38;19.68
77100;SHT31;66602;48.922;2.414;2023-02-27T12:26:26;15.84;21.45
77100;SHT31;66602;48.922;2.414;2023-02-27T12:29:14;15.91;21.58
77100;SHT31;66602;48.922;2.414;2023-02-27T12:34:21;16.74;19.59
77100;SHT31;66602;48.922;2.414;2023-02-27T12:36:51;16.73;19.91
77100;SHT31;66602;48.922;2.414;2023-02-27T12:39:19;17.52;19.12
77100;SHT31;66602;48.922;2.414;2023-02-27T12:42:06;17.38;18.63
77100;SHT31;66602;48.922;2.414;2023-02-27T12:50:21;16.20;20.05
77100;SHT31;66602;48.922;2.414;2023-02-27T12:55:40;16.88;18.67
77100;SHT31;66602;48.922;2.414;2023-02-27T12:58:34;17.01;18.68
77100;SHT31;66602;48.922;2.414;2023-02-27T13:03:57;17.59;18.33
77100;SHT31;66602;48.922;2.414;2023-02-27T13:09:44;18.01;18.67
77100;SHT31;66602;48.922;2.414;2023-02-27T13:17:35;17.46;18.11
77100;SHT31;66602;48.922;2.414;2023-02-27T13:22:51;16.71;18.50
77100;SHT31;66602;48.922;2.414;2023-02-27T13:25:20;16.91;19.09
77100;SHT31;66602;48.922;2.414;2023-02-27T13:27:51;16.97;18.82
77100;SHT31;66602;48.922;2.414;2023-02-27T13:30:23;16.70;19.96
77100;SHT31;66602;48.922;2.414;2023-02-27T13:38:28;16.74;18.37
77100;SHT31;66602;48.922;2.414;2023-02-27T13:40:55;17.06;19.01
77100;SHT31;66602;48.922;2.414;2023-02-27T13:43:35;16.26;19.15
77100;SHT31;66602;48.922;2.414;2023-02-27T13:46:03;16.66;18.32
77100;SHT31;66602;48.922;2.414;2023-02-27T13:48:36;16.50;18.04
77100;SHT31;66602;48.922;2.414;2023-02-27T13:51:07;16.76;17.57
77100;SHT31;66602;48.922;2.414;2023-02-27T13:53:35;16.49;18.96
77100;SHT31;66602;48.922;2.414;2023-02-27T13:56:21;16.57;19.42
77100;SHT31;66602;48.922;2.414;2023-02-27T13:58:47;16.70;18.86
77100;SHT31;66602;48.922;2.414;2023-02-27T14:01:25;16.05;18.62
77100;SHT31;66602;48.922;2.414;2023-02-27T14:03:55;16.04;17.83
77100;SHT31;66602;48.922;2.414;2023-02-27T14:06:25;16.39;17.92
77100;SHT31;66602;48.922;2.414;2023-02-27T14:08:52;16.87;17.96
77100;SHT31;66602;48.922;2.414;2023-02-27T14:11:29;16.92;17.82
77100;SHT31;66602;48.922;2.414;2023-02-27T14:14:08;16.71;18.63
77100;SHT31;66602;48.922;2.414;2023-02-27T14:16:55;16.87;18.27
77100;SHT31;66602;48.922;2.414;2023-02-27T14:19:26;16.80;17.79
77100;SHT31;66602;48.922;2.414;2023-02-27T14:22:26;15.82;17.53
77100;SHT31;66602;48.922;2.414;2023-02-27T14:24:55;16.02;18.91
77100;SHT31;66602;48.922;2.414;2023-02-27T14:30:25;15.36;19.14
77100;SHT31;66602;48.922;2.414;2023-02-27T14:33:14;15.29;18.47
77100;SHT31;66602;48.922;2.414;2023-02-27T14:35:48;14.67;19.30
77100;SHT31;66602;48.922;2.414;2023-02-27T14:38:18;14.71;19.25
77100;SHT31;66602;48.922;2.414;2023-02-27T14:40:59;14.32;20.21
77100;SHT31;66602;48.922;2.414;2023-02-27T14:43:46;14.16;21.18
77100;SHT31;66602;48.922;2.414;2023-02-27T14:46:24;14.27;21.01
77100;SHT31;66602;48.922;2.414;2023-02-27T14:49:01;14.30;21.90
77100;SHT31;66602;48.922;2.414;2023-02-27T14:51:30;14.34;20.51
77100;SHT31;66602;48.922;2.414;2023-02-27T14:54:10;14.13;20.60
77100;SHT31;66602;48.922;2.414;2023-02-27T14:56:37;14.42;20.75
77100;SHT31;66602;48.922;2.414;2023-02-27T14:59:25;14.55;21.05
77100;SHT31;66602;48.922;2.414;2023-02-27T15:01:52;14.20;21.20
77100;SHT31;66602;48.922;2.414;2023-02-27T15:04:21;13.63;21.46
77100;SHT31;66602;48.922;2.414;2023-02-27T15:06:52;13.34;21.60
77100;SHT31;66602;48.922;2.414;2023-02-27T15:09:34;13.56;22.54
77100;SHT31;66602;48.922;2.414;2023-02-27T15:12:00;13.72;21.76
77100;SHT31;66602;48.922;2.414;2023-02-27T15:14:31;13.22;21.80
77100;SHT31;66602;48.922;2.414;2023-02-27T15:16:57;13.19;22.62
77100;SHT31;66602;48.922;2.414;2023-02-27T15:19:28;13.12;23.29
77100;SHT31;66602;48.922;2.414;2023-02-27T15:21:59;13.35;22.00
77100;SHT31;66602;48.922;2.414;2023-02-27T15:24:30;13.25;22.51
77100;SHT31;66602;48.922;2.414;2023-02-27T15:27:05;13.28;22.70
77100;SHT31;66602;48.922;2.414;2023-02-27T15:29:35;13.65;22.14
77100;SHT31;66602;48.922;2.414;2023-02-27T15:32:02;13.59;22.69
77100;SHT31;66602;48.922;2.414;2023-02-27T15:34:29;13.59;22.48
77100;SHT31;66602;48.922;2.414;2023-02-27T15:36:58;12.74;23.89
77100;SHT31;66602;48.922;2.414;2023-02-27T15:39:30;12.60;24.27
77100;SHT31;66602;48.922;2.414;2023-02-27T15:42:00;12.65;25.10
77100;SHT31;66602;48.922;2.414;2023-02-27T15:44:36;12.57;24.27
77100;SHT31;66602;48.922;2.414;2023-02-27T15:47:04;12.06;26.09
77100;SHT31;66602;48.922;2.414;2023-02-27T15:49:30;11.67;25.75
77100;SHT31;66602;48.922;2.414;2023-02-27T15:52:02;11.27;26.71
77100;SHT31;66602;48.922;2.414;2023-02-27T15:54:34;10.40;27.30
77100;SHT31;66602;48.922;2.414;2023-02-27T15:57:02;9.82;28.53
77100;SHT31;66602;48.922;2.414;2023-02-27T15:59:32;9.46;30.57
77100;SHT31;66602;48.922;2.414;2023-02-27T16:02:00;9.60;29.96
77100;SHT31;66602;48.922;2.414;2023-02-27T16:04:28;9.56;30.25
77100;SHT31;66602;48.922;2.414;2023-02-27T16:07:02;9.53;30.61
77100;SHT31;66602;48.922;2.414;2023-02-27T16:09:32;9.46;31.26
77100;SHT31;66602;48.922;2.414;2023-02-27T16:12:35;9.67;31.50
77100;SHT31;66602;48.922;2.414;2023-02-27T16:23:24;8.39;33.66
77100;SHT31;66602;48.922;2.414;2023-02-27T16:28:53;7.68;36.14
77100;SHT31;66602;48.922;2.414;2023-02-27T16:31:38;7.42;36.31
77100;SHT31;66602;48.922;2.414;2023-02-27T16:34:21;7.16;37.20
77100;SHT31;66602;48.922;2.414;2023-02-27T16:36:57;6.96;37.21
77100;SHT31;66602;48.922;2.414;2023-02-27T16:39:23;6.82;37.59
77100;SHT31;66602;48.922;2.414;2023-02-27T16:41:54;6.65;38.74
77100;SHT31;66602;48.922;2.414;2023-02-27T16:44:20;6.41;38.70
77100;SHT31;66602;48.922;2.414;2023-02-27T16:46:48;6.17;39.60
77100;SHT31;66602;48.922;2.414;2023-02-27T16:49:20;5.93;41.01
77100;SHT31;66602;48.922;2.414;2023-02-27T16:51:46;5.82;40.76
77100;SHT31;66602;48.922;2.414;2023-02-27T16:54:12;5.58;41.17
77100;SHT31;66602;48.922;2.414;2023-02-27T16:56:39;5.48;41.97
77100;SHT31;66602;48.922;2.414;2023-02-27T16:59:05;5.48;41.44
77100;SHT31;66602;48.922;2.414;2023-02-27T17:01:31;5.35;41.98
77100;SHT31;66602;48.922;2.414;2023-02-27T17:03:57;5.27;42.27
77100;SHT31;66602;48.922;2.414;2023-02-27T17:06:23;5.20;41.86
77100;SHT31;66602;48.922;2.414;2023-02-27T17:08:49;5.15;42.28
77100;SHT31;66602;48.922;2.414;2023-02-27T17:11:15;5.05;43.12
77100;SHT31;66602;48.922;2.414;2023-02-27T17:13:40;4.98;43.41
77100;SHT31;66602;48.922;2.414;2023-02-27T17:16:06;4.91;43.62
77100;SHT31;66602;48.922;2.414;2023-02-27T17:18:32;4.79;44.22
77100;SHT31;66602;48.922;2.414;2023-02-27T17:21:02;4.72;44.14
77100;SHT31;66602;48.922;2.414;2023-02-27T17:23:29;4.66;44.71
77100;SHT31;66602;48.922;2.414;2023-02-27T17:25:54;4.60;45.52
77100;SHT31;66602;48.922;2.414;2023-02-27T17:28:21;4.59;45.50
77100;SHT31;66602;48.922;2.414;2023-02-27T17:30:47;4.55;46.10
77100;SHT31;66602;48.922;2.414;2023-02-27T17:33:12;4.55;46.39
77100;SHT31;66602;48.922;2.414;2023-02-27T17:35:38;4.43;46.18
77100;SHT31;66602;48.922;2.414;2023-02-27T17:38:04;4.43;45.97
77100;SHT31;66602;48.922;2.414;2023-02-27T17:40:29;4.39;46.94
77100;SHT31;66602;48.922;2.414;2023-02-27T17:42:55;4.18;47.55
77100;SHT31;66602;48.922;2.414;2023-02-27T17:45:20;3.95;48.19
77100;SHT31;66602;48.922;2.414;2023-02-27T17:47:49;3.97;48.86
77100;SHT31;66602;48.922;2.414;2023-02-27T17:50:14;3.88;48.75
77100;SHT31;66602;48.922;2.414;2023-02-27T17:52:40;3.81;48.80
77100;SHT31;66602;48.922;2.414;2023-02-27T17:55:07;3.70;49.61
77100;SHT31;66602;48.922;2.414;2023-02-27T17:57:34;3.62;49.71
77100;SHT31;66602;48.922;2.414;2023-02-27T18:00:02;3.60;49.72
77100;SHT31;66602;48.922;2.414;2023-02-27T18:02:28;3.54;50.35
77100;SHT31;66602;48.922;2.414;2023-02-27T18:04:54;3.57;49.82
77100;SHT31;66602;48.922;2.414;2023-02-27T18:07:19;3.49;50.78
77100;SHT31;66602;48.922;2.414;2023-02-27T18:09:45;3.47;52.18
77100;SHT31;66602;48.922;2.414;2023-02-27T18:12:10;3.53;51.54
77100;SHT31;66602;48.922;2.414;2023-02-27T18:14:36;3.49;51.64
77100;SHT31;66602;48.922;2.414;2023-02-27T18:17:02;3.43;52.46